sensor_id;sensor_type;location;lat;lon;timestamp;P1;durP1;ratioP1;P2;durP2;ratioP2
38025;SDS011;23836;48.430;9.888;2022-07-04T15:42:36;6.20;;;1.75;;
38025;SDS011;23836;48.430;9.888;2022-07-04T15:47:26;11.57;;;1.52;;
38025;SDS011;23836;48.430;9.888;2022-07-04T15:52:16;2.75;;;1.60;;
38025;SDS011;23836;48.430;9.888;2022-07-04T15:57:07;2.28;;;1.88;;
38025;SDS011;23836;48.430;9.888;2022-07-04T16:01:58;2.85;;;1.42;;
38025;SDS011;23836;48.430;9.888;2022-07-04T16:06:49;2.15;;;1.70;;
38025;SDS011;23836;48.430;9.888;2022-07-04T16:11:40;1.80;;;1.60;;
38025;SDS011;23836;48.430;9.888;2022-07-04T16:16:31;1.67;;;1.33;;
38025;SDS011;23836;48.430;9.888;2022-07-04T16:21:22;2.70;;;1.63;;
38025;SDS011;23836;48.430;9.888;2022-07-04T16:26:13;5.97;;;1.70;;
38025;SDS011;23836;48.430;9.888;2022-07-04T16:31:03;3.23;;;1.97;;
38025;SDS011;23836;48.430;9.888;2022-07-04T16:35:53;2.27;;;1.40;;
38025;SDS011;23836;48.430;9.888;2022-07-04T16:40:44;1.83;;;1.30;;
38025;SDS011;23836;48.430;9.888;2022-07-04T16:45:34;3.20;;;2.00;;
38025;SDS011;23836;48.430;9.888;2022-07-04T16:50:25;2.40;;;1.85;;
38025;SDS011;23836;48.430;9.888;2022-07-04T16:55:15;3.90;;;1.98;;
38025;SDS011;23836;48.430;9.888;2022-07-04T17:00:07;5.82;;;2.75;;
38025;SDS011;23836;48.430;9.888;2022-07-04T17:04:58;5.97;;;2.60;;
38025;SDS011;23836;48.430;9.888;2022-07-04T17:09:48;4.07;;;2.40;;
38025;SDS011;23836;48.430;9.888;2022-07-04T17:14:39;4.10;;;2.13;;
38025;SDS011;23836;48.430;9.888;2022-07-04T17:19:29;2.17;;;1.83;;
38025;SDS011;23836;48.430;9.888;2022-07-04T17:24:20;3.60;;;2.20;;
38025;SDS011;23836;48.430;9.888;2022-07-04T17:29:10;3.40;;;2.10;;
38025;SDS011;23836;48.430;9.888;2022-07-04T17:34:00;5.70;;;2.00;;
38025;SDS011;23836;48.430;9.888;2022-07-04T17:38:51;5.95;;;2.58;;
38025;SDS011;23836;48.430;9.888;2022-07-04T17:43:41;4.80;;;2.23;;
38025;SDS011;23836;48.430;9.888;2022-07-04T17:48:32;14.60;;;3.17;;
38025;SDS011;23836;48.430;9.888;2022-07-04T17:53:22;15.15;;;4.82;;
38025;SDS011;23836;48.430;9.888;2022-07-04T17:58:13;7.32;;;2.92;;
38025;SDS011;23836;48.430;9.888;2022-07-04T18:03:04;5.78;;;3.55;;
38025;SDS011;23836;48.430;9.888;2022-07-04T18:07:54;8.15;;;3.00;;
38025;SDS011;23836;48.430;9.888;2022-07-04T18:12:44;7.15;;;2.20;;
38025;SDS011;23836;48.430;9.888;2022-07-04T18:17:35;3.97;;;2.40;;
38025;SDS011;23836;48.430;9.888;2022-07-04T18:22:25;6.55;;;2.17;;
38025;SDS011;23836;48.430;9.888;2022-07-04T18:27:16;2.65;;;2.25;;
38025;SDS011;23836;48.430;9.888;2022-07-04T18:32:06;5.75;;;2.65;;
38025;SDS011;23836;48.430;9.888;2022-07-04T18:36:58;4.32;;;2.60;;
38025;SDS011;23836;48.430;9.888;2022-07-04T18:41:49;4.07;;;3.30;;
38025;SDS011;23836;48.430;9.888;2022-07-04T18:46:58;10.50;;;3.30;;
38025;SDS011;23836;48.430;9.888;2022-07-04T18:51:50;8.95;;;3.33;;
38025;SDS011;23836;48.430;9.888;2022-07-04T18:56:40;4.15;;;3.08;;
